Oatsville, Indiana
Current Conditions -  °F | °C
As of 3:55 AM on Friday 28 Nov 2014 (Local Time) from KDCY Reporting Station
Overcast Overcast  
Wind Chill: 23°   Ceiling: 9000
Heat Index: 23°   Visibility: 10mi
Dew Point: 18°   Wind: 0mph
Humidity: 80%   Direction: NA
Pressure: 30.42"   Gusts: NA
Location:  38.4723°N, 87.3105°W
Report Text: KDCY 280955Z AUTO 00000KT 10SM BKN090 OVC110 M05/M08 A3042 RMK AO2 T10481078
Loading
Personal Weather Stations






























Interactive Weather Map New forecast layout! Learn more

10-Day Weather Forecast

Advertisements
Track Severe Weather on mobile